Tsuruoka, Japan
Current Conditions -  °F | °C
As of 9:00 PM on Friday 31 Oct 2014 (Local Time) from RJSY Reporting Station
Broken Clouds Broken Clouds  
Wind Chill: 54°   Ceiling: Unl
Heat Index: 54°   Visibility: 6mi
Dew Point: 50°   Wind: 8mph
Humidity: 88%   Direction: 80°E
Pressure: 30.15"   Gusts: NA
Location:  38.73°N, 139.82°E
Report Text: RJSY 311200Z 08007KT 9999 FEW010 BKN/// 12/10 Q1021
Loading
Personal Weather Stations






























Interactive Weather Map
Tropical Storm Tracking
New forecast layout! Learn more

10-Day Weather Forecast

Advertisements
Track Severe Weather on mobile